sensor_id;sensor_type;location;lat;lon;timestamp;temperature;humidity
20492;DHT22;10404;51.468;6.762;2023-07-13T00:00:38;22.40;43.60
20492;DHT22;10404;51.468;6.762;2023-07-13T00:03:04;22.40;43.60
20492;DHT22;10404;51.468;6.762;2023-07-13T00:05:30;22.30;43.70
20492;DHT22;10404;51.468;6.762;2023-07-13T00:07:56;22.30;43.70
20492;DHT22;10404;51.468;6.762;2023-07-13T00:10:22;22.20;43.70
20492;DHT22;10404;51.468;6.762;2023-07-13T00:12:48;22.20;43.70
20492;DHT22;10404;51.468;6.762;2023-07-13T00:15:22;22.10;43.80
20492;DHT22;10404;51.468;6.762;2023-07-13T00:17:53;22.10;43.80
20492;DHT22;10404;51.468;6.762;2023-07-13T00:20:20;22.10;43.90
20492;DHT22;10404;51.468;6.762;2023-07-13T00:22:48;22.00;44.00
20492;DHT22;10404;51.468;6.762;2023-07-13T00:25:14;22.00;44.00
20492;DHT22;10404;51.468;6.762;2023-07-13T00:27:42;22.00;44.00
20492;DHT22;10404;51.468;6.762;2023-07-13T00:30:08;21.90;44.10
20492;DHT22;10404;51.468;6.762;2023-07-13T00:32:34;21.90;44.10
20492;DHT22;10404;51.468;6.762;2023-07-13T00:35:00;21.90;44.10
20492;DHT22;10404;51.468;6.762;2023-07-13T00:37:26;21.80;44.10
20492;DHT22;10404;51.468;6.762;2023-07-13T00:39:52;21.70;44.30
20492;DHT22;10404;51.468;6.762;2023-07-13T00:42:18;21.70;44.30
20492;DHT22;10404;51.468;6.762;2023-07-13T00:47:31;21.60;44.30
20492;DHT22;10404;51.468;6.762;2023-07-13T00:49:56;21.50;44.40
20492;DHT22;10404;51.468;6.762;2023-07-13T00:52:22;21.50;44.50
20492;DHT22;10404;51.468;6.762;2023-07-13T00:54:48;21.50;44.50
20492;DHT22;10404;51.468;6.762;2023-07-13T00:57:17;21.50;44.60
20492;DHT22;10404;51.468;6.762;2023-07-13T00:59:49;21.40;44.60
20492;DHT22;10404;51.468;6.762;2023-07-13T01:02:16;21.40;44.70
20492;DHT22;10404;51.468;6.762;2023-07-13T01:04:42;21.40;44.70
20492;DHT22;10404;51.468;6.762;2023-07-13T01:07:10;21.30;44.70
20492;DHT22;10404;51.468;6.762;2023-07-13T01:09:37;21.30;44.80
20492;DHT22;10404;51.468;6.762;2023-07-13T01:12:02;21.20;44.80
20492;DHT22;10404;51.468;6.762;2023-07-13T01:14:28;21.10;44.80
20492;DHT22;10404;51.468;6.762;2023-07-13T01:16:54;21.10;44.90
20492;DHT22;10404;51.468;6.762;2023-07-13T01:22:02;21.10;45.00
20492;DHT22;10404;51.468;6.762;2023-07-13T01:24:28;21.00;45.00
20492;DHT22;10404;51.468;6.762;2023-07-13T01:26:54;21.00;45.10
20492;DHT22;10404;51.468;6.762;2023-07-13T01:29:21;20.90;45.10
20492;DHT22;10404;51.468;6.762;2023-07-13T01:31:46;20.90;45.10
20492;DHT22;10404;51.468;6.762;2023-07-13T01:34:12;20.90;45.20
20492;DHT22;10404;51.468;6.762;2023-07-13T01:36:38;20.80;45.20
20492;DHT22;10404;51.468;6.762;2023-07-13T01:39:04;20.80;45.30
20492;DHT22;10404;51.468;6.762;2023-07-13T01:41:30;20.80;45.40
20492;DHT22;10404;51.468;6.762;2023-07-13T01:43:55;20.70;45.40
20492;DHT22;10404;51.468;6.762;2023-07-13T01:46:21;20.70;45.50
20492;DHT22;10404;51.468;6.762;2023-07-13T01:48:47;20.60;45.60
20492;DHT22;10404;51.468;6.762;2023-07-13T01:51:12;20.60;45.50
20492;DHT22;10404;51.468;6.762;2023-07-13T01:53:38;20.60;45.70
20492;DHT22;10404;51.468;6.762;2023-07-13T01:56:04;20.50;45.70
20492;DHT22;10404;51.468;6.762;2023-07-13T01:58:30;20.50;45.70
20492;DHT22;10404;51.468;6.762;2023-07-13T02:00:55;20.50;45.80
20492;DHT22;10404;51.468;6.762;2023-07-13T02:03:21;20.50;45.90
20492;DHT22;10404;51.468;6.762;2023-07-13T02:05:47;20.40;45.90
20492;DHT22;10404;51.468;6.762;2023-07-13T02:08:12;20.40;46.00
20492;DHT22;10404;51.468;6.762;2023-07-13T02:10:38;20.30;46.10
20492;DHT22;10404;51.468;6.762;2023-07-13T02:13:06;20.30;46.20
20492;DHT22;10404;51.468;6.762;2023-07-13T02:15:32;20.30;46.20
20492;DHT22;10404;51.468;6.762;2023-07-13T02:17:57;20.20;46.20
20492;DHT22;10404;51.468;6.762;2023-07-13T02:20:24;20.20;46.30
20492;DHT22;10404;51.468;6.762;2023-07-13T02:22:50;20.10;46.40
20492;DHT22;10404;51.468;6.762;2023-07-13T02:25:15;20.10;46.40
20492;DHT22;10404;51.468;6.762;2023-07-13T02:27:41;20.10;46.50
20492;DHT22;10404;51.468;6.762;2023-07-13T02:30:07;20.00;46.50
20492;DHT22;10404;51.468;6.762;2023-07-13T02:32:33;20.00;46.50
20492;DHT22;10404;51.468;6.762;2023-07-13T02:34:59;20.00;46.50
20492;DHT22;10404;51.468;6.762;2023-07-13T02:37:24;20.00;46.50
20492;DHT22;10404;51.468;6.762;2023-07-13T02:39:50;20.00;46.60
20492;DHT22;10404;51.468;6.762;2023-07-13T02:42:16;19.90;46.60
20492;DHT22;10404;51.468;6.762;2023-07-13T02:44:42;19.90;46.70
20492;DHT22;10404;51.468;6.762;2023-07-13T02:47:07;19.90;46.70
20492;DHT22;10404;51.468;6.762;2023-07-13T02:49:33;19.80;46.80
20492;DHT22;10404;51.468;6.762;2023-07-13T02:51:58;19.80;46.90
20492;DHT22;10404;51.468;6.762;2023-07-13T02:54:25;19.70;46.90
20492;DHT22;10404;51.468;6.762;2023-07-13T02:56:50;19.70;47.00
20492;DHT22;10404;51.468;6.762;2023-07-13T02:59:16;19.70;47.00
20492;DHT22;10404;51.468;6.762;2023-07-13T03:01:42;19.70;47.10
20492;DHT22;10404;51.468;6.762;2023-07-13T03:04:07;19.60;47.20
20492;DHT22;10404;51.468;6.762;2023-07-13T03:06:33;19.60;47.20
20492;DHT22;10404;51.468;6.762;2023-07-13T03:08:59;19.50;47.20
20492;DHT22;10404;51.468;6.762;2023-07-13T03:11:25;19.50;47.20
20492;DHT22;10404;51.468;6.762;2023-07-13T03:13:52;19.50;47.30
20492;DHT22;10404;51.468;6.762;2023-07-13T03:16:17;19.50;47.40
20492;DHT22;10404;51.468;6.762;2023-07-13T03:18:43;19.50;47.40
20492;DHT22;10404;51.468;6.762;2023-07-13T03:21:09;19.40;47.60
20492;DHT22;10404;51.468;6.762;2023-07-13T03:23:35;19.40;47.60
20492;DHT22;10404;51.468;6.762;2023-07-13T03:26:21;19.30;47.60
20492;DHT22;10404;51.468;6.762;2023-07-13T03:28:47;19.30;47.70
20492;DHT22;10404;51.468;6.762;2023-07-13T03:31:21;19.30;47.80
20492;DHT22;10404;51.468;6.762;2023-07-13T03:33:47;19.30;47.80
20492;DHT22;10404;51.468;6.762;2023-07-13T03:36:19;19.20;47.90
20492;DHT22;10404;51.468;6.762;2023-07-13T03:38:52;19.20;48.00
20492;DHT22;10404;51.468;6.762;2023-07-13T03:41:18;19.20;48.00
20492;DHT22;10404;51.468;6.762;2023-07-13T03:43:44;19.20;48.00
20492;DHT22;10404;51.468;6.762;2023-07-13T03:46:10;19.10;48.10
20492;DHT22;10404;51.468;6.762;2023-07-13T03:48:35;19.10;48.10
20492;DHT22;10404;51.468;6.762;2023-07-13T03:51:01;19.10;48.20
20492;DHT22;10404;51.468;6.762;2023-07-13T03:53:27;19.10;48.20
20492;DHT22;10404;51.468;6.762;2023-07-13T03:55:53;19.00;48.30
20492;DHT22;10404;51.468;6.762;2023-07-13T03:58:34;19.00;48.30
20492;DHT22;10404;51.468;6.762;2023-07-13T04:01:00;19.00;48.40
20492;DHT22;10404;51.468;6.762;2023-07-13T04:03:27;19.00;48.50
20492;DHT22;10404;51.468;6.762;2023-07-13T04:05:56;19.00;48.60
20492;DHT22;10404;51.468;6.762;2023-07-13T04:08:30;18.90;48.60
20492;DHT22;10404;51.468;6.762;2023-07-13T04:10:57;18.90;48.60
20492;DHT22;10404;51.468;6.762;2023-07-13T04:13:24;18.90;48.70
20492;DHT22;10404;51.468;6.762;2023-07-13T04:15:50;18.90;48.80
20492;DHT22;10404;51.468;6.762;2023-07-13T04:18:16;18.90;48.90
20492;DHT22;10404;51.468;6.762;2023-07-13T04:20:42;18.80;49.00
20492;DHT22;10404;51.468;6.762;2023-07-13T04:23:08;18.80;49.10
20492;DHT22;10404;51.468;6.762;2023-07-13T04:25:34;18.80;49.20
20492;DHT22;10404;51.468;6.762;2023-07-13T04:27:59;18.80;49.20
20492;DHT22;10404;51.468;6.762;2023-07-13T04:30:25;18.80;49.40
20492;DHT22;10404;51.468;6.762;2023-07-13T04:32:52;18.70;49.50
20492;DHT22;10404;51.468;6.762;2023-07-13T04:35:19;18.70;49.50
20492;DHT22;10404;51.468;6.762;2023-07-13T04:37:47;18.70;49.60
20492;DHT22;10404;51.468;6.762;2023-07-13T04:40:14;18.70;49.70
20492;DHT22;10404;51.468;6.762;2023-07-13T04:42:39;18.70;49.80
20492;DHT22;10404;51.468;6.762;2023-07-13T04:45:06;18.70;49.90
20492;DHT22;10404;51.468;6.762;2023-07-13T04:47:32;18.70;50.00
20492;DHT22;10404;51.468;6.762;2023-07-13T04:49:58;18.60;50.00
20492;DHT22;10404;51.468;6.762;2023-07-13T04:52:24;18.60;50.10
20492;DHT22;10404;51.468;6.762;2023-07-13T04:54:49;18.60;50.20
20492;DHT22;10404;51.468;6.762;2023-07-13T04:57:15;18.60;50.30
20492;DHT22;10404;51.468;6.762;2023-07-13T04:59:41;18.60;50.30
20492;DHT22;10404;51.468;6.762;2023-07-13T05:02:07;18.60;50.50
20492;DHT22;10404;51.468;6.762;2023-07-13T05:04:32;18.60;50.50
20492;DHT22;10404;51.468;6.762;2023-07-13T05:06:59;18.50;50.50
20492;DHT22;10404;51.468;6.762;2023-07-13T05:09:25;18.50;50.70
20492;DHT22;10404;51.468;6.762;2023-07-13T05:11:50;18.50;50.50
20492;DHT22;10404;51.468;6.762;2023-07-13T05:14:16;18.50;50.60
20492;DHT22;10404;51.468;6.762;2023-07-13T05:16:42;18.50;50.80
20492;DHT22;10404;51.468;6.762;2023-07-13T05:19:09;18.50;50.70
20492;DHT22;10404;51.468;6.762;2023-07-13T05:21:34;18.50;52.20
20492;DHT22;10404;51.468;6.762;2023-07-13T05:24:00;18.40;51.90
20492;DHT22;10404;51.468;6.762;2023-07-13T05:26:25;18.40;51.80
20492;DHT22;10404;51.468;6.762;2023-07-13T05:28:51;18.50;51.70
20492;DHT22;10404;51.468;6.762;2023-07-13T05:31:17;18.40;51.60
20492;DHT22;10404;51.468;6.762;2023-07-13T05:33:42;18.40;51.60
20492;DHT22;10404;51.468;6.762;2023-07-13T05:36:08;18.40;51.60
20492;DHT22;10404;51.468;6.762;2023-07-13T05:38:34;18.50;51.70
20492;DHT22;10404;51.468;6.762;2023-07-13T05:41:00;18.40;51.60
20492;DHT22;10404;51.468;6.762;2023-07-13T05:43:26;18.40;51.70
20492;DHT22;10404;51.468;6.762;2023-07-13T05:45:53;18.40;51.80
20492;DHT22;10404;51.468;6.762;2023-07-13T05:48:19;18.40;52.00
20492;DHT22;10404;51.468;6.762;2023-07-13T05:50:45;18.40;51.80
20492;DHT22;10404;51.468;6.762;2023-07-13T05:53:12;18.40;51.90
20492;DHT22;10404;51.468;6.762;2023-07-13T05:55:42;18.40;51.70
20492;DHT22;10404;51.468;6.762;2023-07-13T05:58:08;18.40;52.20
20492;DHT22;10404;51.468;6.762;2023-07-13T06:00:34;18.40;52.10
20492;DHT22;10404;51.468;6.762;2023-07-13T06:02:59;18.40;52.30
20492;DHT22;10404;51.468;6.762;2023-07-13T06:05:25;18.40;52.80
20492;DHT22;10404;51.468;6.762;2023-07-13T06:07:50;18.30;52.10
20492;DHT22;10404;51.468;6.762;2023-07-13T06:10:16;18.40;52.10
20492;DHT22;10404;51.468;6.762;2023-07-13T06:12:42;18.40;52.50
20492;DHT22;10404;51.468;6.762;2023-07-13T06:15:08;18.40;52.30
20492;DHT22;10404;51.468;6.762;2023-07-13T06:17:33;18.40;52.30
20492;DHT22;10404;51.468;6.762;2023-07-13T06:19:59;18.40;52.90
20492;DHT22;10404;51.468;6.762;2023-07-13T06:22:24;18.40;52.60
20492;DHT22;10404;51.468;6.762;2023-07-13T06:24:50;18.40;52.70
20492;DHT22;10404;51.468;6.762;2023-07-13T06:27:16;18.40;53.10
20492;DHT22;10404;51.468;6.762;2023-07-13T06:29:41;18.40;53.00
20492;DHT22;10404;51.468;6.762;2023-07-13T06:32:10;18.40;53.80
20492;DHT22;10404;51.468;6.762;2023-07-13T06:34:36;18.40;53.00
20492;DHT22;10404;51.468;6.762;2023-07-13T06:37:02;18.40;53.20
20492;DHT22;10404;51.468;6.762;2023-07-13T06:39:27;18.40;53.10
20492;DHT22;10404;51.468;6.762;2023-07-13T06:41:53;18.40;53.90
20492;DHT22;10404;51.468;6.762;2023-07-13T06:44:18;18.50;53.60
20492;DHT22;10404;51.468;6.762;2023-07-13T06:46:44;18.50;54.40
20492;DHT22;10404;51.468;6.762;2023-07-13T06:49:09;18.60;54.60
20492;DHT22;10404;51.468;6.762;2023-07-13T06:51:35;18.60;54.50
20492;DHT22;10404;51.468;6.762;2023-07-13T06:54:01;18.60;54.50
20492;DHT22;10404;51.468;6.762;2023-07-13T06:56:26;18.70;54.40
20492;DHT22;10404;51.468;6.762;2023-07-13T06:58:52;18.70;54.60
20492;DHT22;10404;51.468;6.762;2023-07-13T07:01:17;18.70;55.00
20492;DHT22;10404;51.468;6.762;2023-07-13T07:03:43;18.70;54.70
20492;DHT22;10404;51.468;6.762;2023-07-13T07:06:15;18.70;54.40
20492;DHT22;10404;51.468;6.762;2023-07-13T07:08:41;18.70;54.40
20492;DHT22;10404;51.468;6.762;2023-07-13T07:11:11;18.80;54.50
20492;DHT22;10404;51.468;6.762;2023-07-13T07:13:37;18.80;55.30
20492;DHT22;10404;51.468;6.762;2023-07-13T07:16:02;18.80;54.80
20492;DHT22;10404;51.468;6.762;2023-07-13T07:18:28;18.90;55.50
20492;DHT22;10404;51.468;6.762;2023-07-13T07:20:54;18.90;55.30
20492;DHT22;10404;51.468;6.762;2023-07-13T07:23:19;19.00;55.90
20492;DHT22;10404;51.468;6.762;2023-07-13T07:25:45;19.00;55.00
20492;DHT22;10404;51.468;6.762;2023-07-13T07:28:12;19.00;55.30
20492;DHT22;10404;51.468;6.762;2023-07-13T07:30:42;19.10;55.40
20492;DHT22;10404;51.468;6.762;2023-07-13T07:33:08;19.10;55.40
20492;DHT22;10404;51.468;6.762;2023-07-13T07:35:34;19.20;55.30
20492;DHT22;10404;51.468;6.762;2023-07-13T07:38:00;19.20;55.20
20492;DHT22;10404;51.468;6.762;2023-07-13T07:40:25;19.20;55.70
20492;DHT22;10404;51.468;6.762;2023-07-13T07:42:51;19.30;55.40
20492;DHT22;10404;51.468;6.762;2023-07-13T07:45:17;19.30;55.80
20492;DHT22;10404;51.468;6.762;2023-07-13T07:47:43;19.40;55.80
20492;DHT22;10404;51.468;6.762;2023-07-13T07:50:09;19.50;55.60
20492;DHT22;10404;51.468;6.762;2023-07-13T07:52:35;19.50;55.50
20492;DHT22;10404;51.468;6.762;2023-07-13T07:55:01;19.60;55.40
20492;DHT22;10404;51.468;6.762;2023-07-13T07:57:26;19.70;55.10
20492;DHT22;10404;51.468;6.762;2023-07-13T07:59:52;19.70;55.20
20492;DHT22;10404;51.468;6.762;2023-07-13T08:02:17;19.90;55.30
20492;DHT22;10404;51.468;6.762;2023-07-13T08:04:43;20.00;55.40
20492;DHT22;10404;51.468;6.762;2023-07-13T08:07:09;20.10;55.00
20492;DHT22;10404;51.468;6.762;2023-07-13T08:09:34;20.20;55.00
20492;DHT22;10404;51.468;6.762;2023-07-13T08:12:00;20.30;55.10
20492;DHT22;10404;51.468;6.762;2023-07-13T08:14:26;20.20;55.20
20492;DHT22;10404;51.468;6.762;2023-07-13T08:16:51;20.30;54.70
20492;DHT22;10404;51.468;6.762;2023-07-13T08:19:17;20.30;54.80
20492;DHT22;10404;51.468;6.762;2023-07-13T08:21:43;20.40;54.80
20492;DHT22;10404;51.468;6.762;2023-07-13T08:24:09;20.40;55.00
20492;DHT22;10404;51.468;6.762;2023-07-13T08:26:34;20.50;54.80
20492;DHT22;10404;51.468;6.762;2023-07-13T08:29:00;20.70;54.50
20492;DHT22;10404;51.468;6.762;2023-07-13T08:31:26;21.00;53.90
20492;DHT22;10404;51.468;6.762;2023-07-13T08:33:51;21.20;53.60
20492;DHT22;10404;51.468;6.762;2023-07-13T08:36:17;21.40;53.00
20492;DHT22;10404;51.468;6.762;2023-07-13T08:38:44;21.50;52.70
20492;DHT22;10404;51.468;6.762;2023-07-13T08:41:18;21.50;53.00
20492;DHT22;10404;51.468;6.762;2023-07-13T08:43:47;21.60;52.50
20492;DHT22;10404;51.468;6.762;2023-07-13T08:46:36;21.50;52.70
20492;DHT22;10404;51.468;6.762;2023-07-13T08:49:10;21.50;52.70
20492;DHT22;10404;51.468;6.762;2023-07-13T08:51:45;21.50;53.00
20492;DHT22;10404;51.468;6.762;2023-07-13T08:54:32;21.50;53.40
20492;DHT22;10404;51.468;6.762;2023-07-13T08:57:03;21.40;53.70
20492;DHT22;10404;51.468;6.762;2023-07-13T08:59:34;21.30;53.90
20492;DHT22;10404;51.468;6.762;2023-07-13T09:05:10;21.50;53.60
20492;DHT22;10404;51.468;6.762;2023-07-13T09:10:32;21.80;53.10
20492;DHT22;10404;51.468;6.762;2023-07-13T09:15:45;22.00;52.70
20492;DHT22;10404;51.468;6.762;2023-07-13T09:18:13;22.00;52.60
20492;DHT22;10404;51.468;6.762;2023-07-13T09:21:32;22.00;52.90
20492;DHT22;10404;51.468;6.762;2023-07-13T09:23:38;22.10;52.70
20492;DHT22;10404;51.468;6.762;2023-07-13T09:26:05;22.10;52.80
20492;DHT22;10404;51.468;6.762;2023-07-13T09:28:41;22.10;52.90
20492;DHT22;10404;51.468;6.762;2023-07-13T09:33:38;22.20;52.90
20492;DHT22;10404;51.468;6.762;2023-07-13T09:36:21;22.30;52.90
20492;DHT22;10404;51.468;6.762;2023-07-13T09:38:49;22.60;52.20
20492;DHT22;10404;51.468;6.762;2023-07-13T09:44:27;23.00;51.30
20492;DHT22;10404;51.468;6.762;2023-07-13T09:46:55;23.00;51.20
20492;DHT22;10404;51.468;6.762;2023-07-13T09:49:26;23.00;51.50
20492;DHT22;10404;51.468;6.762;2023-07-13T09:51:59;22.90;51.70
20492;DHT22;10404;51.468;6.762;2023-07-13T09:54:26;22.90;51.80
20492;DHT22;10404;51.468;6.762;2023-07-13T09:56:59;22.80;51.90
20492;DHT22;10404;51.468;6.762;2023-07-13T09:59:35;22.80;52.00
20492;DHT22;10404;51.468;6.762;2023-07-13T10:05:06;23.00;51.90
20492;DHT22;10404;51.468;6.762;2023-07-13T10:07:38;23.20;51.40
20492;DHT22;10404;51.468;6.762;2023-07-13T10:10:21;23.40;50.90
20492;DHT22;10404;51.468;6.762;2023-07-13T10:12:48;23.50;50.70
20492;DHT22;10404;51.468;6.762;2023-07-13T10:15:20;23.50;50.70
20492;DHT22;10404;51.468;6.762;2023-07-13T10:17:47;23.60;50.70
20492;DHT22;10404;51.468;6.762;2023-07-13T10:20:14;23.80;50.20
20492;DHT22;10404;51.468;6.762;2023-07-13T10:22:54;23.80;50.00
20492;DHT22;10404;51.468;6.762;2023-07-13T10:25:25;23.60;50.20
20492;DHT22;10404;51.468;6.762;2023-07-13T10:28:00;23.60;50.50
20492;DHT22;10404;51.468;6.762;2023-07-13T10:30:31;23.50;50.60
20492;DHT22;10404;51.468;6.762;2023-07-13T10:33:03;23.50;50.70
20492;DHT22;10404;51.468;6.762;2023-07-13T10:35:34;23.50;50.50
20492;DHT22;10404;51.468;6.762;2023-07-13T10:38:06;23.60;50.30
20492;DHT22;10404;51.468;6.762;2023-07-13T10:40:41;23.80;50.00
20492;DHT22;10404;51.468;6.762;2023-07-13T10:45:48;24.00;49.60
20492;DHT22;10404;51.468;6.762;2023-07-13T10:48:16;24.00;49.30
20492;DHT22;10404;51.468;6.762;2023-07-13T10:50:45;24.20;49.20
20492;DHT22;10404;51.468;6.762;2023-07-13T10:53:19;24.20;49.00
20492;DHT22;10404;51.468;6.762;2023-07-13T11:01:09;24.40;48.70
20492;DHT22;10404;51.468;6.762;2023-07-13T11:06:11;24.70;48.20
20492;DHT22;10404;51.468;6.762;2023-07-13T11:18:51;25.30;47.10
20492;DHT22;10404;51.468;6.762;2023-07-13T11:21:26;25.40;46.90
20492;DHT22;10404;51.468;6.762;2023-07-13T11:31:52;25.80;46.20
20492;DHT22;10404;51.468;6.762;2023-07-13T11:34:27;25.80;46.10
20492;DHT22;10404;51.468;6.762;2023-07-13T11:36:54;25.90;46.00
20492;DHT22;10404;51.468;6.762;2023-07-13T11:39:37;26.00;45.80
20492;DHT22;10404;51.468;6.762;2023-07-13T11:42:06;26.20;45.50
20492;DHT22;10404;51.468;6.762;2023-07-13T11:44:34;26.40;45.50
20492;DHT22;10404;51.468;6.762;2023-07-13T11:47:14;26.40;45.40
20492;DHT22;10404;51.468;6.762;2023-07-13T11:49:44;26.40;45.50
20492;DHT22;10404;51.468;6.762;2023-07-13T11:52:28;26.50;45.40
20492;DHT22;10404;51.468;6.762;2023-07-13T11:54:57;26.60;45.30
20492;DHT22;10404;51.468;6.762;2023-07-13T11:59:54;26.80;44.60
20492;DHT22;10404;51.468;6.762;2023-07-13T12:02:31;26.90;44.40
20492;DHT22;10404;51.468;6.762;2023-07-13T12:04:59;26.90;44.30
20492;DHT22;10404;51.468;6.762;2023-07-13T12:07:29;27.00;44.30
20492;DHT22;10404;51.468;6.762;2023-07-13T12:12:33;27.10;43.80
20492;DHT22;10404;51.468;6.762;2023-07-13T12:14:59;27.10;43.70
20492;DHT22;10404;51.468;6.762;2023-07-13T12:17:25;27.20;43.70
20492;DHT22;10404;51.468;6.762;2023-07-13T12:19:52;27.20;43.30
20492;DHT22;10404;51.468;6.762;2023-07-13T12:22:19;27.30;43.30
20492;DHT22;10404;51.468;6.762;2023-07-13T12:24:46;27.30;43.20
20492;DHT22;10404;51.468;6.762;2023-07-13T12:27:30;27.40;43.20
20492;DHT22;10404;51.468;6.762;2023-07-13T12:30:04;27.40;43.00
20492;DHT22;10404;51.468;6.762;2023-07-13T12:32:30;27.40;43.10
20492;DHT22;10404;51.468;6.762;2023-07-13T12:35:16;27.40;42.90
20492;DHT22;10404;51.468;6.762;2023-07-13T12:37:43;27.40;42.90
20492;DHT22;10404;51.468;6.762;2023-07-13T12:40:17;27.40;42.70
20492;DHT22;10404;51.468;6.762;2023-07-13T12:42:49;27.40;42.70
20492;DHT22;10404;51.468;6.762;2023-07-13T12:45:25;27.40;42.70
20492;DHT22;10404;51.468;6.762;2023-07-13T12:47:56;27.30;42.50
20492;DHT22;10404;51.468;6.762;2023-07-13T12:50:40;27.30;42.60
20492;DHT22;10404;51.468;6.762;2023-07-13T12:53:13;27.20;42.70
20492;DHT22;10404;51.468;6.762;2023-07-13T12:55:51;27.20;42.50
20492;DHT22;10404;51.468;6.762;2023-07-13T12:58:39;27.20;42.50
20492;DHT22;10404;51.468;6.762;2023-07-13T13:01:08;27.20;42.60
20492;DHT22;10404;51.468;6.762;2023-07-13T13:03:35;27.10;42.70
20492;DHT22;10404;51.468;6.762;2023-07-13T13:06:06;27.10;42.70
20492;DHT22;10404;51.468;6.762;2023-07-13T13:08:33;27.10;42.80
20492;DHT22;10404;51.468;6.762;2023-07-13T13:11:01;27.00;42.80
20492;DHT22;10404;51.468;6.762;2023-07-13T13:13:27;26.90;42.90
20492;DHT22;10404;51.468;6.762;2023-07-13T13:15:52;26.90;42.90
20492;DHT22;10404;51.468;6.762;2023-07-13T13:18:20;26.90;43.00
20492;DHT22;10404;51.468;6.762;2023-07-13T13:20:48;26.90;43.00
20492;DHT22;10404;51.468;6.762;2023-07-13T13:23:19;26.90;42.90
20492;DHT22;10404;51.468;6.762;2023-07-13T13:25:46;26.90;43.00
20492;DHT22;10404;51.468;6.762;2023-07-13T13:28:18;26.80;43.00
20492;DHT22;10404;51.468;6.762;2023-07-13T13:30:45;26.90;43.10
20492;DHT22;10404;51.468;6.762;2023-07-13T13:33:13;26.80;42.90
20492;DHT22;10404;51.468;6.762;2023-07-13T13:35:40;26.90;42.70
20492;DHT22;10404;51.468;6.762;2023-07-13T13:38:17;26.90;42.70
20492;DHT22;10404;51.468;6.762;2023-07-13T13:40:44;26.90;42.60
20492;DHT22;10404;51.468;6.762;2023-07-13T13:43:24;26.90;42.40
20492;DHT22;10404;51.468;6.762;2023-07-13T13:45:57;26.90;42.20
20492;DHT22;10404;51.468;6.762;2023-07-13T13:48:34;26.90;42.30
20492;DHT22;10404;51.468;6.762;2023-07-13T13:51:03;26.90;42.20
20492;DHT22;10404;51.468;6.762;2023-07-13T13:53:31;26.90;42.30
20492;DHT22;10404;51.468;6.762;2023-07-13T13:55:57;27.00;42.20
20492;DHT22;10404;51.468;6.762;2023-07-13T13:58:22;26.90;42.20
20492;DHT22;10404;51.468;6.762;2023-07-13T14:00:48;26.90;42.40
20492;DHT22;10404;51.468;6.762;2023-07-13T14:03:19;26.90;42.70
20492;DHT22;10404;51.468;6.762;2023-07-13T14:05:46;26.90;42.60
20492;DHT22;10404;51.468;6.762;2023-07-13T14:08:17;26.90;42.60
20492;DHT22;10404;51.468;6.762;2023-07-13T14:10:51;26.80;43.20
20492;DHT22;10404;51.468;6.762;2023-07-13T14:13:23;26.80;43.30
20492;DHT22;10404;51.468;6.762;2023-07-13T14:15:52;26.80;43.40
20492;DHT22;10404;51.468;6.762;2023-07-13T14:18:18;26.90;43.20
20492;DHT22;10404;51.468;6.762;2023-07-13T14:20:47;26.90;43.20
20492;DHT22;10404;51.468;6.762;2023-07-13T14:23:14;27.00;43.60
20492;DHT22;10404;51.468;6.762;2023-07-13T14:25:41;27.00;43.80
20492;DHT22;10404;51.468;6.762;2023-07-13T14:28:21;27.10;43.80
20492;DHT22;10404;51.468;6.762;2023-07-13T14:30:47;27.10;43.60
20492;DHT22;10404;51.468;6.762;2023-07-13T14:33:13;27.10;43.70
20492;DHT22;10404;51.468;6.762;2023-07-13T14:35:39;27.20;43.70
20492;DHT22;10404;51.468;6.762;2023-07-13T14:38:05;27.20;43.50
20492;DHT22;10404;51.468;6.762;2023-07-13T14:40:34;27.30;43.30
20492;DHT22;10404;51.468;6.762;2023-07-13T14:43:00;27.30;43.30
20492;DHT22;10404;51.468;6.762;2023-07-13T14:45:26;27.40;43.20
20492;DHT22;10404;51.468;6.762;2023-07-13T14:47:52;27.40;43.10
20492;DHT22;10404;51.468;6.762;2023-07-13T14:50:27;27.40;43.20
20492;DHT22;10404;51.468;6.762;2023-07-13T14:52:55;27.50;43.20
20492;DHT22;10404;51.468;6.762;2023-07-13T14:55:21;27.50;43.00
20492;DHT22;10404;51.468;6.762;2023-07-13T14:57:47;27.50;43.20
20492;DHT22;10404;51.468;6.762;2023-07-13T15:00:18;27.50;43.40
20492;DHT22;10404;51.468;6.762;2023-07-13T15:02:52;27.60;43.30
20492;DHT22;10404;51.468;6.762;2023-07-13T15:05:28;27.60;43.20
20492;DHT22;10404;51.468;6.762;2023-07-13T15:07:59;27.70;43.30
20492;DHT22;10404;51.468;6.762;2023-07-13T15:10:28;27.70;43.20
20492;DHT22;10404;51.468;6.762;2023-07-13T15:12:59;27.70;43.40
20492;DHT22;10404;51.468;6.762;2023-07-13T15:15:28;27.70;43.00
20492;DHT22;10404;51.468;6.762;2023-07-13T15:17:53;27.60;43.20
20492;DHT22;10404;51.468;6.762;2023-07-13T15:20:33;27.50;43.10
20492;DHT22;10404;51.468;6.762;2023-07-13T15:23:00;27.50;43.50
20492;DHT22;10404;51.468;6.762;2023-07-13T15:25:28;27.40;44.00
20492;DHT22;10404;51.468;6.762;2023-07-13T15:27:56;27.30;44.10
20492;DHT22;10404;51.468;6.762;2023-07-13T15:30:25;27.30;44.40
20492;DHT22;10404;51.468;6.762;2023-07-13T15:32:52;27.20;44.60
20492;DHT22;10404;51.468;6.762;2023-07-13T15:35:24;27.10;44.80
20492;DHT22;10404;51.468;6.762;2023-07-13T15:37:49;27.10;45.10
20492;DHT22;10404;51.468;6.762;2023-07-13T15:40:15;27.00;45.50
20492;DHT22;10404;51.468;6.762;2023-07-13T15:42:43;26.90;45.60
20492;DHT22;10404;51.468;6.762;2023-07-13T15:45:19;26.80;45.80
20492;DHT22;10404;51.468;6.762;2023-07-13T15:47:46;26.70;46.10
20492;DHT22;10404;51.468;6.762;2023-07-13T15:50:20;26.60;46.40
20492;DHT22;10404;51.468;6.762;2023-07-13T15:52:49;26.50;46.50
20492;DHT22;10404;51.468;6.762;2023-07-13T15:55:15;26.40;46.70
20492;DHT22;10404;51.468;6.762;2023-07-13T15:57:47;26.00;47.00
20492;DHT22;10404;51.468;6.762;2023-07-13T16:00:24;25.40;49.90
20492;DHT22;10404;51.468;6.762;2023-07-13T16:02:51;24.80;50.00
20492;DHT22;10404;51.468;6.762;2023-07-13T16:05:18;24.40;51.50
20492;DHT22;10404;51.468;6.762;2023-07-13T16:07:46;24.20;52.00
20492;DHT22;10404;51.468;6.762;2023-07-13T16:10:41;23.90;52.70
20492;DHT22;10404;51.468;6.762;2023-07-13T16:13:14;23.70;53.10
20492;DHT22;10404;51.468;6.762;2023-07-13T16:15:40;23.60;53.90
20492;DHT22;10404;51.468;6.762;2023-07-13T16:18:10;23.50;54.10
20492;DHT22;10404;51.468;6.762;2023-07-13T16:20:37;23.40;53.60
20492;DHT22;10404;51.468;6.762;2023-07-13T16:23:04;23.40;54.20
20492;DHT22;10404;51.468;6.762;2023-07-13T16:25:29;23.30;55.00
20492;DHT22;10404;51.468;6.762;2023-07-13T16:27:56;23.20;55.30
20492;DHT22;10404;51.468;6.762;2023-07-13T16:30:30;23.20;55.60
20492;DHT22;10404;51.468;6.762;2023-07-13T16:32:56;23.10;54.50